createdAt,value
2022-10-19T00:00:15.098Z,2.20
2022-10-19T00:02:45.589Z,2.92
2022-10-19T00:05:14.404Z,2.03
2022-10-19T00:07:42.927Z,2.17
2022-10-19T00:10:12.451Z,2.00
2022-10-19T00:12:41.075Z,2.40
2022-10-19T00:15:10.865Z,2.17
2022-10-19T00:17:39.287Z,2.42
2022-10-19T00:20:10.165Z,2.25
2022-10-19T00:22:39.224Z,2.35
2022-10-19T00:25:08.998Z,2.50
2022-10-19T00:27:38.894Z,2.85
2022-10-19T00:30:08.301Z,2.80
2022-10-19T00:32:36.834Z,2.60
2022-10-19T00:35:05.864Z,2.50
2022-10-19T00:37:36.424Z,2.70
2022-10-19T00:40:05.979Z,3.28
2022-10-19T00:42:34.943Z,2.50
2022-10-19T00:45:13.817Z,3.65
2022-10-19T00:47:43.897Z,3.83
2022-10-19T00:50:14.705Z,3.20
2022-10-19T00:52:44.672Z,2.75
2022-10-19T00:55:14.200Z,2.53
2022-10-19T00:57:42.848Z,2.80
2022-10-19T01:00:14.806Z,2.45
2022-10-19T01:02:45.230Z,2.67
2022-10-19T01:05:14.633Z,3.35
2022-10-19T01:07:44.721Z,3.05
2022-10-19T01:10:13.946Z,2.58
2022-10-19T01:13:08.082Z,3.00
2022-10-19T01:15:42.920Z,2.90
2022-10-19T01:18:21.747Z,2.80
2022-10-19T01:21:05.149Z,2.80
2022-10-19T01:24:03.224Z,3.40
2022-10-19T01:26:59.095Z,3.05
2022-10-19T01:29:45.007Z,2.70
2022-10-19T01:32:23.508Z,3.35
2022-10-19T01:35:01.178Z,2.72
2022-10-19T01:37:37.095Z,3.10
2022-10-19T01:40:13.772Z,2.72
2022-10-19T01:42:50.588Z,3.15
2022-10-19T01:45:23.022Z,3.20
2022-10-19T01:47:56.936Z,3.42
2022-10-19T01:50:30.375Z,3.72
2022-10-19T01:53:00.546Z,4.22
2022-10-19T01:55:31.008Z,2.58
2022-10-19T01:58:08.427Z,2.97
2022-10-19T02:00:43.178Z,2.28
2022-10-19T02:03:18.559Z,2.90
2022-10-19T02:05:57.497Z,3.85
2022-10-19T02:08:32.682Z,2.97
2022-10-19T02:11:02.813Z,2.70
2022-10-19T02:13:33.296Z,2.53
2022-10-19T02:16:07.461Z,2.97
2022-10-19T02:18:42.384Z,2.88
2022-10-19T02:21:11.006Z,2.85
2022-10-19T02:23:39.516Z,2.42
2022-10-19T02:26:08.994Z,2.75
2022-10-19T02:28:38.634Z,2.85
2022-10-19T02:31:07.520Z,3.83
2022-10-19T02:33:39.893Z,2.42
2022-10-19T02:36:08.915Z,2.50
2022-10-19T02:38:38.050Z,2.67
2022-10-19T02:41:12.105Z,2.58
2022-10-19T02:43:44.062Z,2.67
2022-10-19T02:46:19.694Z,2.65
2022-10-19T02:48:52.488Z,2.85
2022-10-19T02:51:30.842Z,2.50
2022-10-19T02:54:04.997Z,2.75
2022-10-19T02:56:34.650Z,3.10
2022-10-19T02:59:04.764Z,2.65
2022-10-19T03:01:33.329Z,2.80
2022-10-19T03:04:03.157Z,2.75
2022-10-19T03:06:31.625Z,1.85
2022-10-19T03:09:00.108Z,2.28
2022-10-19T03:11:28.665Z,2.40
2022-10-19T03:13:57.113Z,2.38
2022-10-19T03:16:25.803Z,2.85
2022-10-19T03:18:54.925Z,2.60
2022-10-19T03:21:24.840Z,3.00
2022-10-19T03:23:54.585Z,2.30
2022-10-19T03:26:23.417Z,2.78
2022-10-19T03:28:52.942Z,3.08
2022-10-19T03:31:21.459Z,2.65
2022-10-19T03:33:50.575Z,3.03
2022-10-19T03:36:22.889Z,3.15
2022-10-19T03:38:53.679Z,2.70
2022-10-19T03:41:23.683Z,3.08
2022-10-19T03:43:52.680Z,2.35
2022-10-19T03:46:22.215Z,2.95
2022-10-19T03:48:51.373Z,2.72
2022-10-19T03:51:22.170Z,3.08
2022-10-19T03:53:56.133Z,2.67
2022-10-19T03:56:27.154Z,2.72
2022-10-19T04:01:27.439Z,2.72
2022-10-19T04:03:57.212Z,2.90
2022-10-19T04:06:27.533Z,3.20
2022-10-19T04:08:58.065Z,2.75
2022-10-19T04:11:30.382Z,2.53
2022-10-19T04:14:02.530Z,2.28
2022-10-19T04:16:32.320Z,3.78
2022-10-19T04:19:01.275Z,2.03
2022-10-19T04:21:32.145Z,2.35
2022-10-19T04:24:05.567Z,2.63
2022-10-19T04:26:34.582Z,2.17
2022-10-19T04:29:03.356Z,2.50
2022-10-19T04:31:31.782Z,2.92
2022-10-19T04:34:00.549Z,2.10
2022-10-19T04:36:29.101Z,2.53
2022-10-19T04:38:57.568Z,2.33
2022-10-19T04:41:28.976Z,2.78
2022-10-19T04:44:01.143Z,2.97
2022-10-19T04:46:30.838Z,2.28
2022-10-19T04:49:00.364Z,2.10
2022-10-19T04:51:29.236Z,2.45
2022-10-19T04:53:59.634Z,2.83
2022-10-19T04:56:32.613Z,2.13
2022-10-19T04:59:02.133Z,2.25
2022-10-19T05:01:32.257Z,2.10
2022-10-19T05:04:02.769Z,2.92
2022-10-19T05:06:32.809Z,2.83
2022-10-19T05:09:13.932Z,3.10
2022-10-19T05:11:43.865Z,3.92
2022-10-19T05:14:12.773Z,2.90
2022-10-19T05:16:41.402Z,2.58
2022-10-19T05:19:14.468Z,2.13
2022-10-19T05:21:43.051Z,2.75
2022-10-19T05:24:13.351Z,2.63
2022-10-19T05:26:43.293Z,4.00
2022-10-19T05:29:13.785Z,3.85
2022-10-19T05:31:42.873Z,2.95
2022-10-19T05:34:11.532Z,2.00
2022-10-19T05:36:41.254Z,2.33
2022-10-19T05:39:13.770Z,2.65
2022-10-19T05:41:44.842Z,2.45
2022-10-19T05:44:16.978Z,3.10
2022-10-19T05:46:45.600Z,2.90
2022-10-19T05:49:15.127Z,3.17
2022-10-19T05:51:43.729Z,2.75
2022-10-19T05:54:13.037Z,2.63
2022-10-19T05:56:43.601Z,3.13
2022-10-19T05:59:16.309Z,2.88
2022-10-19T06:01:45.497Z,2.55
2022-10-19T06:04:15.129Z,3.28
2022-10-19T06:06:43.989Z,3.03
2022-10-19T06:09:12.798Z,2.90
2022-10-19T06:11:44.561Z,4.05
2022-10-19T06:14:15.607Z,2.88
2022-10-19T06:16:46.495Z,3.53
2022-10-19T06:19:16.243Z,3.58
2022-10-19T06:21:46.586Z,3.28
2022-10-19T06:24:15.074Z,3.60
2022-10-19T06:26:44.918Z,3.55
2022-10-19T06:29:35.633Z,3.88
2022-10-19T06:32:05.849Z,4.10
2022-10-19T06:34:34.435Z,4.57
2022-10-19T06:37:02.936Z,3.35
2022-10-19T06:39:39.345Z,4.35
2022-10-19T06:42:09.728Z,4.55
2022-10-19T06:44:40.198Z,4.15
2022-10-19T06:47:08.904Z,3.63
2022-10-19T06:49:39.746Z,4.00
2022-10-19T06:52:09.398Z,4.22
2022-10-19T06:54:37.822Z,3.70
2022-10-19T06:57:08.132Z,4.18
2022-10-19T06:59:38.138Z,3.58
2022-10-19T07:02:06.939Z,4.80
2022-10-19T07:04:35.368Z,5.00
2022-10-19T07:07:03.910Z,3.28
2022-10-19T07:09:34.673Z,3.78
2022-10-19T07:12:04.581Z,3.97
2022-10-19T07:14:38.633Z,4.85
2022-10-19T07:17:08.897Z,3.53
2022-10-19T07:19:37.605Z,4.53
2022-10-19T07:22:06.227Z,3.22
2022-10-19T07:24:36.000Z,3.60
2022-10-19T07:27:04.886Z,3.50
2022-10-19T07:29:33.677Z,3.92
2022-10-19T07:32:02.321Z,3.70
2022-10-19T07:34:33.098Z,3.40
2022-10-19T07:37:01.773Z,4.63
2022-10-19T07:39:32.474Z,5.97
2022-10-19T07:42:01.126Z,3.55
2022-10-19T07:44:29.532Z,3.00
2022-10-19T07:46:59.958Z,4.05
2022-10-19T07:49:28.401Z,3.40
2022-10-19T07:51:59.133Z,3.22
2022-10-19T07:54:27.786Z,3.13
2022-10-19T07:56:56.478Z,3.20
2022-10-19T07:59:31.082Z,3.63
2022-10-19T08:02:02.399Z,4.53
2022-10-19T08:04:56.082Z,3.08
2022-10-19T08:07:26.674Z,3.38
2022-10-19T08:09:56.029Z,5.10
2022-10-19T08:12:24.672Z,2.83
2022-10-19T08:14:54.864Z,2.90
2022-10-19T08:17:23.486Z,3.30
2022-10-19T08:19:51.946Z,6.30
2022-10-19T08:22:22.282Z,3.50
2022-10-19T08:24:52.077Z,3.00
2022-10-19T08:27:20.561Z,3.05
2022-10-19T08:29:53.418Z,3.17
2022-10-19T08:32:22.211Z,2.97
2022-10-19T08:34:50.828Z,4.90
2022-10-19T08:37:26.316Z,3.85
2022-10-19T08:40:02.814Z,3.63
2022-10-19T08:42:42.638Z,3.72
2022-10-19T08:45:29.749Z,3.50
2022-10-19T08:48:08.721Z,2.95
2022-10-19T08:50:43.206Z,3.90
2022-10-19T08:53:16.675Z,3.08
2022-10-19T08:56:05.096Z,3.33
2022-10-19T08:58:50.297Z,5.10
2022-10-19T09:01:37.548Z,3.97
2022-10-19T09:04:12.231Z,3.50
2022-10-19T09:06:53.723Z,3.88
2022-10-19T09:09:25.345Z,4.07
2022-10-19T09:11:59.501Z,3.33
2022-10-19T09:14:33.168Z,4.10
2022-10-19T09:17:07.670Z,3.80
2022-10-19T09:19:36.278Z,3.53
2022-10-19T09:22:12.825Z,3.50
2022-10-19T09:24:45.029Z,3.35
2022-10-19T09:27:20.821Z,3.33
2022-10-19T09:29:55.218Z,3.40
2022-10-19T09:32:27.958Z,3.40
2022-10-19T09:35:01.287Z,4.43
2022-10-19T09:40:00.341Z,3.58
2022-10-19T09:42:34.822Z,3.17
2022-10-19T09:45:14.504Z,3.30
2022-10-19T09:47:47.196Z,3.28
2022-10-19T09:50:20.289Z,4.70
2022-10-19T09:52:51.451Z,3.55
2022-10-19T09:55:27.496Z,3.50
2022-10-19T09:58:21.643Z,3.53
2022-10-19T10:00:52.385Z,3.85
2022-10-19T10:03:26.348Z,2.90
2022-10-19T10:05:56.945Z,3.20
2022-10-19T10:08:29.198Z,4.85
2022-10-19T10:11:11.477Z,4.18
2022-10-19T10:13:43.771Z,4.38
2022-10-19T10:16:17.092Z,3.22
2022-10-19T10:18:57.733Z,3.38
2022-10-19T10:21:28.832Z,3.38
2022-10-19T10:24:05.851Z,3.67
2022-10-19T10:26:40.742Z,3.63
2022-10-19T10:29:26.457Z,3.70
2022-10-19T10:31:59.946Z,3.97
2022-10-19T10:34:49.319Z,4.30
2022-10-19T10:37:21.861Z,3.17
2022-10-19T10:39:53.745Z,3.97
2022-10-19T10:42:30.326Z,2.90
2022-10-19T10:45:01.737Z,4.18
2022-10-19T10:47:32.257Z,4.30
2022-10-19T10:50:05.931Z,5.13
2022-10-19T10:52:37.235Z,4.25
2022-10-19T10:55:19.170Z,3.72
2022-10-19T10:57:52.963Z,2.85
2022-10-19T11:00:24.178Z,3.65
2022-10-19T11:02:58.814Z,3.78
2022-10-19T11:05:29.937Z,3.50
2022-10-19T11:08:08.548Z,3.72
2022-10-19T11:10:44.898Z,3.28
2022-10-19T11:13:19.840Z,4.13
2022-10-19T11:15:55.072Z,3.50
2022-10-19T11:18:28.492Z,4.22
2022-10-19T11:21:06.565Z,4.18
2022-10-19T11:23:45.413Z,5.47
2022-10-19T11:26:27.521Z,2.90
2022-10-19T11:29:11.777Z,3.38
2022-10-19T11:31:48.292Z,3.45
2022-10-19T11:34:37.135Z,4.10
2022-10-19T11:37:15.592Z,3.42
2022-10-19T11:39:57.709Z,3.47
2022-10-19T11:42:39.750Z,3.58
2022-10-19T11:45:19.957Z,3.38
2022-10-19T11:48:07.186Z,3.45
2022-10-19T11:50:53.809Z,3.40
2022-10-19T11:53:39.072Z,3.35
2022-10-19T11:56:14.486Z,3.53
2022-10-19T11:58:54.786Z,3.35
2022-10-19T12:01:37.478Z,3.85
2022-10-19T12:04:33.312Z,3.80
2022-10-19T12:07:15.857Z,3.85
2022-10-19T12:09:53.632Z,3.72
2022-10-19T12:12:30.809Z,3.58
2022-10-19T12:15:14.077Z,4.20
2022-10-19T12:17:46.282Z,3.65
2022-10-19T12:20:25.944Z,3.42
2022-10-19T12:22:55.182Z,3.60
2022-10-19T12:25:24.226Z,3.97
2022-10-19T12:27:55.382Z,3.75
2022-10-19T12:30:26.250Z,3.58
2022-10-19T12:35:49.247Z,3.05
2022-10-19T12:38:28.805Z,3.78
2022-10-19T12:41:06.340Z,2.92
2022-10-19T12:43:45.005Z,4.65
2022-10-19T12:46:25.206Z,3.20
2022-10-19T12:49:23.254Z,3.30
2022-10-19T12:51:53.999Z,3.08
2022-10-19T12:56:55.993Z,3.15
2022-10-19T12:59:31.438Z,3.40
2022-10-19T13:02:00.890Z,3.63
2022-10-19T13:04:31.628Z,3.45
2022-10-19T13:07:05.017Z,3.35
2022-10-19T13:09:37.306Z,3.38
2022-10-19T13:12:29.126Z,4.93
2022-10-19T13:14:58.768Z,4.55
2022-10-19T13:17:44.390Z,3.60
2022-10-19T13:20:51.311Z,3.30
2022-10-19T13:23:43.765Z,3.30
2022-10-19T13:26:35.651Z,4.20
2022-10-19T13:29:04.676Z,3.28
2022-10-19T13:31:34.293Z,3.05
2022-10-19T13:34:13.648Z,3.92
2022-10-19T13:37:01.014Z,2.85
2022-10-19T13:39:32.154Z,3.17
2022-10-19T13:42:01.109Z,3.40
2022-10-19T13:44:35.582Z,3.15
2022-10-19T13:47:20.232Z,4.60
2022-10-19T13:50:07.710Z,3.63
2022-10-19T13:52:53.377Z,3.30
2022-10-19T13:55:46.562Z,3.53
2022-10-19T13:58:36.868Z,4.90
2022-10-19T14:01:30.401Z,3.88
2022-10-19T14:04:15.118Z,4.00
2022-10-19T14:06:46.175Z,3.53
2022-10-19T14:09:38.466Z,4.15
2022-10-19T14:12:16.510Z,4.57
2022-10-19T14:14:46.118Z,3.83
2022-10-19T14:19:51.626Z,4.10
2022-10-19T14:22:25.737Z,3.80
2022-10-19T14:25:02.059Z,3.50
2022-10-19T14:27:33.579Z,4.25
2022-10-19T14:30:03.733Z,4.28
2022-10-19T14:32:35.413Z,3.22
2022-10-19T14:35:07.853Z,4.30
2022-10-19T14:37:37.996Z,5.50
2022-10-19T14:40:26.623Z,4.75
2022-10-19T14:42:59.409Z,4.70
2022-10-19T14:45:31.080Z,4.75
2022-10-19T14:48:02.330Z,4.07
2022-10-19T14:50:48.698Z,4.13
2022-10-19T14:53:27.083Z,4.10
2022-10-19T14:56:02.094Z,4.85
2022-10-19T14:58:39.713Z,4.93
2022-10-19T15:01:09.257Z,4.38
2022-10-19T15:03:43.603Z,5.20
2022-10-19T15:06:20.146Z,3.80
2022-10-19T15:11:28.298Z,5.68
2022-10-19T15:14:02.991Z,5.05
2022-10-19T15:16:34.560Z,6.53
2022-10-19T15:19:08.553Z,4.20
2022-10-19T15:21:37.134Z,5.10
2022-10-19T15:24:17.605Z,4.88
2022-10-19T15:27:06.622Z,4.32
2022-10-19T15:32:18.748Z,4.43
2022-10-19T15:34:48.894Z,4.47
2022-10-19T15:37:23.822Z,5.03
2022-10-19T15:39:53.556Z,4.47
2022-10-19T15:42:32.917Z,4.90
2022-10-19T15:45:33.389Z,4.90
2022-10-19T15:48:25.113Z,4.90
2022-10-19T15:50:54.150Z,4.47
2022-10-19T15:53:23.835Z,4.45
2022-10-19T15:55:52.539Z,4.78
2022-10-19T15:58:21.856Z,5.03
2022-10-19T16:00:51.838Z,4.40
2022-10-19T16:03:21.170Z,4.15
2022-10-19T16:05:49.773Z,5.38
2022-10-19T16:08:18.335Z,4.85
2022-10-19T16:10:46.953Z,5.53
2022-10-19T16:13:16.745Z,5.03
2022-10-19T16:15:50.103Z,5.22
2022-10-19T16:18:26.728Z,4.65
2022-10-19T16:20:55.338Z,4.15
2022-10-19T16:23:24.427Z,4.50
2022-10-19T16:25:54.078Z,5.18
2022-10-19T16:28:43.269Z,4.20
2022-10-19T16:31:15.654Z,5.38
2022-10-19T16:33:49.874Z,4.53
2022-10-19T16:36:23.333Z,4.78
2022-10-19T16:38:57.444Z,4.78
2022-10-19T16:44:16.151Z,3.70
2022-10-19T16:46:51.182Z,4.63
2022-10-19T16:49:28.661Z,4.88
2022-10-19T16:52:03.279Z,4.45
2022-10-19T16:54:39.822Z,4.15
2022-10-19T16:57:16.514Z,5.05
2022-10-19T17:02:28.235Z,5.40
2022-10-19T17:05:04.669Z,4.88
2022-10-19T17:07:38.112Z,5.45
2022-10-19T17:10:11.449Z,5.68
2022-10-19T17:12:50.518Z,4.70
2022-10-19T17:15:42.485Z,5.22
2022-10-19T17:18:22.466Z,4.90
2022-10-19T17:21:12.235Z,5.88
2022-10-19T17:23:44.145Z,5.63
2022-10-19T17:26:13.113Z,6.03
2022-10-19T17:28:43.513Z,4.72
2022-10-19T17:31:16.844Z,5.70
2022-10-19T17:33:49.729Z,5.65
2022-10-19T17:36:22.814Z,5.43
2022-10-19T17:38:51.385Z,6.97
2022-10-19T17:41:22.187Z,5.30
2022-10-19T17:43:52.799Z,5.63
2022-10-19T17:46:23.992Z,5.53
2022-10-19T17:48:52.761Z,6.32
2022-10-19T17:51:24.945Z,6.00
2022-10-19T17:53:55.101Z,5.28
2022-10-19T17:56:25.191Z,6.60
2022-10-19T17:58:54.301Z,6.05
2022-10-19T18:01:24.154Z,8.23
2022-10-19T18:03:58.914Z,6.90
2022-10-19T18:06:31.570Z,6.80
2022-10-19T18:09:03.895Z,5.97
2022-10-19T18:11:37.113Z,8.38
2022-10-19T18:14:08.031Z,7.10
2022-10-19T18:19:07.077Z,5.80
2022-10-19T18:21:44.872Z,6.40
2022-10-19T18:24:17.030Z,7.57
2022-10-19T18:26:48.291Z,7.10
2022-10-19T18:29:28.620Z,7.07
2022-10-19T18:32:03.264Z,6.90
2022-10-19T18:34:41.158Z,6.82
2022-10-19T18:37:23.837Z,7.10
2022-10-19T20:11:48.753Z,12.18
2022-10-19T20:14:18.953Z,9.27
2022-10-19T20:16:48.069Z,10.90
2022-10-19T20:19:16.669Z,9.93
2022-10-19T20:21:45.423Z,10.77
2022-10-19T20:24:16.394Z,10.65
2022-10-19T20:26:45.032Z,10.70
2022-10-19T20:29:15.442Z,9.90
2022-10-19T20:31:44.108Z,9.55
2022-10-19T20:34:14.153Z,10.43
2022-10-19T20:36:45.867Z,10.25
2022-10-19T20:39:14.445Z,10.10
2022-10-19T20:41:45.526Z,11.20
2022-10-19T20:44:16.682Z,11.10
2022-10-19T20:46:45.880Z,10.52
2022-10-19T20:49:14.658Z,10.90
2022-10-19T20:51:45.512Z,11.23
2022-10-19T20:54:14.535Z,11.13
2022-10-19T20:56:43.629Z,10.18
2022-10-19T20:59:16.872Z,10.07
2022-10-19T21:01:50.480Z,11.25
2022-10-19T21:04:19.405Z,9.77
2022-10-19T21:06:49.893Z,11.10
2022-10-19T21:35:55.028Z,11.40
2022-10-19T21:38:25.356Z,11.75
2022-10-19T21:40:58.722Z,11.70
2022-10-19T21:43:29.003Z,11.65
2022-10-19T21:45:58.236Z,11.52
2022-10-19T21:48:30.858Z,10.48
2022-10-19T21:51:14.524Z,11.98
2022-10-19T21:53:46.775Z,10.80
2022-10-19T21:56:17.172Z,11.02
2022-10-19T21:58:46.948Z,12.45
2022-10-19T22:01:16.215Z,13.05
2022-10-19T22:03:46.237Z,12.82
2022-10-19T22:06:17.289Z,10.90
2022-10-19T22:11:15.689Z,10.30
2022-10-19T22:13:44.312Z,11.43
2022-10-19T22:16:14.747Z,11.15
2022-10-19T22:18:44.119Z,11.80
2022-10-19T22:21:14.500Z,12.15
2022-10-19T22:23:44.968Z,11.65
2022-10-19T22:26:15.144Z,11.68
2022-10-19T22:28:44.382Z,12.02
2022-10-19T22:31:13.869Z,11.48
2022-10-19T22:33:42.813Z,12.73
2022-10-19T22:36:12.994Z,12.20
2022-10-19T22:38:42.149Z,12.32
2022-10-19T22:41:55.244Z,12.15
2022-10-19T22:45:02.867Z,11.70
2022-10-19T22:47:31.494Z,12.55
2022-10-19T22:49:59.964Z,11.50
2022-10-19T22:52:28.532Z,12.23
2022-10-19T22:54:57.467Z,10.88
2022-10-19T22:57:26.162Z,13.10
2022-10-19T22:59:54.610Z,12.45
2022-10-19T23:02:27.044Z,12.73
2022-10-19T23:04:56.867Z,12.73
2022-10-19T23:07:25.617Z,13.90
2022-10-19T23:09:54.262Z,13.35
2022-10-19T23:12:25.637Z,12.52
2022-10-19T23:14:54.357Z,13.55
2022-10-19T23:17:24.262Z,13.38
2022-10-19T23:19:52.893Z,11.87
2022-10-19T23:22:21.373Z,13.35
2022-10-19T23:24:50.244Z,13.10
2022-10-19T23:27:18.892Z,12.63
2022-10-19T23:29:47.473Z,13.80
2022-10-19T23:32:19.325Z,12.95
2022-10-19T23:34:49.259Z,14.88
2022-10-19T23:37:17.883Z,14.03
2022-10-19T23:39:46.482Z,14.85
2022-10-19T23:42:15.036Z,14.48
2022-10-19T23:44:43.590Z,14.85
2022-10-19T23:47:13.473Z,14.85
2022-10-19T23:49:42.115Z,15.10
2022-10-19T23:52:12.068Z,13.80
2022-10-19T23:54:40.722Z,14.47
2022-10-19T23:57:11.776Z,13.45
2022-10-19T23:59:40.454Z,13.75
